Portada
METAR-TAF:

METAR-TAF

Aeroports :

Newport State Airport

Newport, Rhode Island, Estats Units d'Amèrica

latitud: 41-31-48N, longitud: 071-17-01W, altitud: 52 m

Observació

L'informe es va fer fa 12 minuts, a les 22:53 UTC
Vent 13 kt del Oest/Nord-Oest amb ràfegues de 23 kt
Temperatura 7°C
Humitat 70%
Pressió 1005 hPa
Visibilitat: 16.1 km
Cel ennuvolat a una alçada de 3900 ft

METAR: KUUU 222253Z AUTO 30013G23KT 10SM BKN039 07/02 A2969 RMK AO2 PK WND 30027/2155 SLP052 T00670017

Hora: 18:05 (23:05 UTC)


TAF: manca

Observacions i pronòstics meteorològics de més de 4000 aeroports (METAR i TAF).

Les estacions disponibles són els punts grocs i vermells al mapa.

Posi el ratolí al punt desitjat per veure el nom de l'estació.

Feu clic per veure les observacions i els pronòstics meteorològics.

Per canviar el mapa: feu clic els botons verds amb una creu de color negre per apropar; al botó verd amb un guió per allunyar la imatge; o en les fletxes verdes per a mapes adjacents.


METAR-TAF: